createdAt,value
2023-07-08T00:01:11.069Z,56.60
2023-07-08T00:03:38.607Z,56.92
2023-07-08T00:06:06.157Z,55.84
2023-07-08T00:08:35.189Z,57.22
2023-07-08T00:11:03.018Z,57.05
2023-07-08T00:13:30.708Z,58.20
2023-07-08T00:15:58.258Z,59.06
2023-07-08T00:18:25.804Z,59.84
2023-07-08T00:20:53.318Z,59.92
2023-07-08T00:23:22.772Z,59.38
2023-07-08T00:25:52.633Z,60.32
2023-07-08T00:28:22.152Z,59.43
2023-07-08T00:30:50.382Z,59.78
2023-07-08T00:33:18.532Z,60.11
2023-07-08T00:35:46.983Z,60.67
2023-07-08T00:38:16.950Z,61.00
2023-07-08T00:40:53.718Z,59.87
2023-07-08T00:43:24.352Z,59.90
2023-07-08T00:46:02.467Z,60.13
2023-07-08T00:48:32.425Z,60.09
2023-07-08T00:51:00.296Z,60.28
2023-07-08T00:53:30.376Z,60.75
2023-07-08T00:56:01.730Z,60.85
2023-07-08T00:58:33.726Z,60.32
2023-07-08T01:01:01.999Z,60.57
2023-07-08T01:03:30.564Z,60.30
2023-07-08T01:06:01.274Z,60.36
2023-07-08T01:08:31.798Z,60.96
2023-07-08T01:11:04.077Z,60.91
2023-07-08T01:13:36.576Z,60.91
2023-07-08T01:16:04.158Z,61.87
2023-07-08T01:18:32.098Z,61.90
2023-07-08T01:21:07.306Z,62.08
2023-07-08T01:23:37.804Z,62.33
2023-07-08T01:26:05.492Z,62.62
2023-07-08T01:28:33.385Z,62.88
2023-07-08T01:31:04.330Z,62.92
2023-07-08T01:33:35.279Z,63.71
2023-07-08T01:36:02.826Z,63.27
2023-07-08T01:38:30.594Z,63.82
2023-07-08T01:41:00.784Z,63.74
2023-07-08T01:43:28.714Z,63.50
2023-07-08T01:45:56.989Z,62.51
2023-07-08T01:48:25.338Z,63.35
2023-07-08T01:50:58.510Z,62.71
2023-07-08T01:53:31.690Z,63.26
2023-07-08T01:56:01.928Z,63.25
2023-07-08T01:58:29.810Z,64.20
2023-07-08T02:00:57.646Z,64.10
2023-07-08T02:03:25.649Z,64.79
2023-07-08T02:05:53.299Z,64.81
2023-07-08T02:08:21.205Z,65.16
2023-07-08T02:10:52.303Z,64.86
2023-07-08T02:13:21.632Z,64.79
2023-07-08T02:15:49.674Z,65.17
2023-07-08T02:18:19.973Z,64.93
2023-07-08T02:20:47.565Z,64.74
2023-07-08T02:23:15.595Z,64.24
2023-07-08T02:25:43.449Z,64.88
2023-07-08T02:28:13.336Z,64.84
2023-07-08T02:30:42.842Z,64.78
2023-07-08T02:33:11.017Z,64.51
2023-07-08T02:35:38.574Z,64.18
2023-07-08T02:38:06.607Z,64.45
2023-07-08T02:40:34.769Z,64.82
2023-07-08T02:43:02.493Z,64.76
2023-07-08T02:45:30.037Z,64.67
2023-07-08T02:47:58.961Z,64.92
2023-07-08T02:50:26.947Z,65.19
2023-07-08T02:52:54.454Z,65.42
2023-07-08T02:55:21.998Z,65.45
2023-07-08T02:57:49.537Z,65.50
2023-07-08T03:00:17.750Z,65.22
2023-07-08T03:02:45.362Z,64.76
2023-07-08T03:05:14.277Z,65.40
2023-07-08T03:07:41.852Z,65.34
2023-07-08T03:10:10.271Z,65.09
2023-07-08T03:12:37.805Z,65.14
2023-07-08T03:15:07.340Z,65.37
2023-07-08T03:17:34.921Z,65.42
2023-07-08T03:20:02.732Z,65.50
2023-07-08T03:22:31.851Z,65.70
2023-07-08T03:24:59.457Z,65.90
2023-07-08T03:27:27.240Z,65.92
2023-07-08T03:29:56.148Z,65.61
2023-07-08T03:32:24.383Z,65.97
2023-07-08T03:34:52.055Z,65.43
2023-07-08T03:37:21.378Z,65.62
2023-07-08T03:39:50.458Z,65.56
2023-07-08T03:42:18.014Z,66.30
2023-07-08T03:44:45.588Z,66.55
2023-07-08T03:47:13.454Z,66.54
2023-07-08T03:49:41.242Z,66.64
2023-07-08T03:52:11.716Z,66.99
2023-07-08T03:54:40.916Z,66.52
2023-07-08T03:57:09.847Z,65.23
2023-07-08T03:59:37.370Z,65.67
2023-07-08T04:02:05.514Z,66.01
2023-07-08T04:04:33.191Z,65.60
2023-07-08T04:07:00.746Z,64.61
2023-07-08T04:09:28.273Z,63.78
2023-07-08T04:11:55.846Z,63.57
2023-07-08T04:14:24.797Z,63.16
2023-07-08T04:16:54.629Z,62.86
2023-07-08T04:19:23.738Z,63.26
2023-07-08T04:21:51.709Z,63.27
2023-07-08T04:24:19.682Z,63.16
2023-07-08T04:26:48.403Z,62.96
2023-07-08T04:29:17.742Z,62.52
2023-07-08T04:31:46.886Z,61.06
2023-07-08T04:34:16.039Z,59.86
2023-07-08T04:36:43.684Z,59.64
2023-07-08T04:39:11.788Z,59.19
2023-07-08T04:41:41.671Z,58.52
2023-07-08T04:44:09.574Z,58.29
2023-07-08T04:46:40.116Z,58.51
2023-07-08T04:49:10.947Z,58.64
2023-07-08T04:51:38.748Z,58.56
2023-07-08T04:54:07.029Z,58.24
2023-07-08T04:56:40.097Z,57.75
2023-07-08T04:59:08.156Z,56.72
2023-07-08T05:01:35.835Z,56.03
2023-07-08T05:04:06.299Z,55.77
2023-07-08T05:06:35.539Z,56.15
2023-07-08T05:09:04.369Z,56.40
2023-07-08T05:11:32.038Z,56.04
2023-07-08T05:14:00.002Z,55.45
2023-07-08T05:16:27.657Z,54.81
2023-07-08T05:18:55.609Z,54.77
2023-07-08T05:21:23.532Z,54.91
2023-07-08T05:23:52.445Z,54.49
2023-07-08T05:26:20.066Z,54.04
2023-07-08T05:28:47.643Z,53.71
2023-07-08T05:31:15.202Z,53.34
2023-07-08T05:33:42.764Z,52.69
2023-07-08T05:36:10.344Z,51.63
2023-07-08T05:38:37.888Z,51.98
2023-07-08T05:41:07.379Z,50.98
2023-07-08T05:43:34.936Z,50.29
2023-07-08T05:46:11.124Z,50.03
2023-07-08T05:48:40.071Z,49.67
2023-07-08T05:51:07.764Z,49.35
2023-07-08T05:53:35.313Z,49.21
2023-07-08T05:56:04.344Z,48.78
2023-07-08T05:58:33.301Z,48.91
2023-07-08T06:01:01.184Z,48.64
2023-07-08T06:03:29.124Z,48.38
2023-07-08T06:05:56.698Z,48.04
2023-07-08T06:08:24.396Z,48.02
2023-07-08T06:10:52.309Z,47.38
2023-07-08T06:13:19.875Z,47.50
2023-07-08T06:15:48.937Z,47.29
2023-07-08T06:18:16.587Z,47.18
2023-07-08T06:20:44.176Z,47.03
2023-07-08T06:23:11.703Z,47.10
2023-07-08T06:25:39.211Z,46.61
2023-07-08T06:28:06.722Z,46.40
2023-07-08T06:30:34.310Z,46.06
2023-07-08T06:33:03.203Z,45.29
2023-07-08T06:35:30.765Z,44.85
2023-07-08T06:37:58.289Z,44.57
2023-07-08T06:40:25.880Z,44.30
2023-07-08T06:42:53.414Z,43.76
2023-07-08T06:45:42.007Z,43.42
2023-07-08T06:48:11.023Z,43.29
2023-07-08T06:50:39.767Z,42.40
2023-07-08T06:53:08.973Z,42.15
2023-07-08T06:55:36.542Z,41.67
2023-07-08T06:58:04.118Z,41.08
2023-07-08T07:00:31.666Z,40.62
2023-07-08T07:03:00.336Z,40.19
2023-07-08T07:05:29.316Z,40.20
2023-07-08T07:07:58.128Z,39.01
2023-07-08T07:10:25.853Z,38.78
2023-07-08T07:12:53.435Z,38.20
2023-07-08T07:15:20.967Z,38.03
2023-07-08T07:17:48.601Z,37.12
2023-07-08T07:20:16.410Z,36.93
2023-07-08T07:22:45.391Z,36.15
2023-07-08T07:25:12.945Z,36.20
2023-07-08T07:27:40.487Z,35.27
2023-07-08T07:30:10.918Z,35.11
2023-07-08T07:32:38.651Z,35.39
2023-07-08T07:35:07.619Z,35.28
2023-07-08T07:37:35.158Z,35.24
2023-07-08T07:40:04.261Z,34.84
2023-07-08T07:42:31.784Z,34.15
2023-07-08T07:44:59.460Z,34.39
2023-07-08T07:47:28.986Z,34.79
2023-07-08T07:49:58.020Z,34.52
2023-07-08T07:52:26.251Z,34.35
2023-07-08T07:54:54.988Z,33.61
2023-07-08T07:57:24.135Z,33.42
2023-07-08T07:59:51.675Z,33.09
2023-07-08T08:02:19.674Z,32.91
2023-07-08T08:04:47.382Z,32.40
2023-07-08T08:07:15.056Z,32.62
2023-07-08T08:09:42.785Z,32.67
2023-07-08T08:12:12.075Z,32.02
2023-07-08T08:14:41.297Z,31.41
2023-07-08T08:17:08.987Z,30.36
2023-07-08T08:19:36.709Z,30.42
2023-07-08T08:22:04.682Z,29.62
2023-07-08T08:24:32.266Z,29.10
2023-07-08T08:26:59.995Z,28.94
2023-07-08T08:29:27.667Z,28.76
2023-07-08T08:31:56.529Z,28.86
2023-07-08T08:34:24.060Z,29.01
2023-07-08T08:36:51.555Z,28.76
2023-07-08T08:39:19.142Z,29.02
2023-07-08T08:41:46.761Z,28.90
2023-07-08T08:44:17.154Z,28.66
2023-07-08T08:46:51.045Z,27.65
2023-07-08T08:49:26.825Z,27.81
2023-07-08T08:51:54.922Z,27.16
2023-07-08T08:54:22.627Z,27.19
2023-07-08T08:56:56.215Z,26.74
2023-07-08T08:59:29.849Z,25.74
2023-07-08T09:01:57.978Z,25.87
2023-07-08T09:04:31.609Z,25.24
2023-07-08T09:07:03.080Z,25.01
2023-07-08T09:09:35.198Z,25.33
2023-07-08T09:12:06.114Z,25.76
2023-07-08T09:14:36.230Z,25.48
2023-07-08T09:17:16.714Z,25.56
2023-07-08T09:19:47.290Z,23.77
2023-07-08T09:22:18.221Z,24.03
2023-07-08T09:24:47.843Z,24.17
2023-07-08T09:27:15.456Z,24.30
2023-07-08T09:29:43.031Z,22.93
2023-07-08T09:32:18.648Z,22.59
2023-07-08T09:34:49.119Z,22.09
2023-07-08T09:37:23.608Z,22.20
2023-07-08T09:39:51.340Z,22.13
2023-07-08T09:42:18.994Z,22.79
2023-07-08T09:44:47.717Z,23.08
2023-07-08T09:47:25.007Z,22.77
2023-07-08T09:49:55.256Z,22.81
2023-07-08T09:52:23.691Z,22.41
2023-07-08T09:54:51.418Z,22.77
2023-07-08T09:57:27.799Z,23.08
2023-07-08T09:59:59.572Z,22.74
2023-07-08T10:02:28.364Z,22.69
2023-07-08T10:04:58.759Z,22.50
2023-07-08T10:07:29.807Z,22.41
2023-07-08T10:10:00.177Z,22.47
2023-07-08T10:12:27.816Z,22.49
2023-07-08T10:15:00.003Z,21.97
2023-07-08T10:17:27.845Z,22.27
2023-07-08T10:19:57.048Z,21.65
2023-07-08T10:22:37.900Z,22.09
2023-07-08T10:25:15.426Z,22.02
2023-07-08T10:27:50.058Z,21.40
2023-07-08T10:30:22.299Z,21.19
2023-07-08T10:33:20.573Z,21.05
2023-07-08T10:35:55.196Z,20.72
2023-07-08T10:38:36.333Z,20.85
2023-07-08T10:41:10.384Z,20.75
2023-07-08T10:43:46.398Z,20.38
2023-07-08T10:46:35.601Z,19.61
2023-07-08T10:49:22.696Z,20.57
2023-07-08T10:52:00.201Z,20.60
2023-07-08T10:54:42.646Z,20.72
2023-07-08T10:57:21.297Z,20.45
2023-07-08T10:59:58.391Z,20.27
2023-07-08T11:02:40.906Z,20.47
2023-07-08T11:05:20.558Z,20.49
2023-07-08T11:07:53.296Z,21.15
2023-07-08T11:10:25.465Z,21.11
2023-07-08T11:12:57.258Z,20.83
2023-07-08T11:15:26.326Z,21.15
2023-07-08T11:17:59.367Z,20.88
2023-07-08T11:20:33.228Z,20.76
2023-07-08T11:23:05.250Z,20.72
2023-07-08T11:25:33.945Z,20.46
2023-07-08T11:28:05.134Z,20.54
2023-07-08T11:30:35.842Z,20.86
2023-07-08T11:33:05.799Z,20.66
2023-07-08T11:35:40.953Z,19.78
2023-07-08T11:38:13.790Z,20.75
2023-07-08T11:40:52.590Z,20.28
2023-07-08T11:43:21.531Z,20.17
2023-07-08T11:45:50.883Z,20.32
2023-07-08T11:48:20.695Z,20.16
2023-07-08T11:50:49.186Z,19.54
2023-07-08T11:53:34.837Z,19.38
2023-07-08T11:56:05.416Z,19.11
2023-07-08T11:58:34.190Z,19.28
2023-07-08T12:01:06.167Z,19.33
2023-07-08T12:03:37.332Z,19.72
2023-07-08T12:06:07.456Z,18.96
2023-07-08T12:08:41.535Z,19.18
2023-07-08T12:11:13.558Z,19.48
2023-07-08T12:13:40.995Z,19.52
2023-07-08T12:16:10.917Z,19.35
2023-07-08T12:18:46.770Z,19.42
2023-07-08T12:21:15.162Z,19.77
2023-07-08T12:23:48.322Z,19.87
2023-07-08T12:26:16.573Z,19.72
2023-07-08T12:28:44.597Z,19.31
2023-07-08T12:31:17.289Z,19.01
2023-07-08T12:33:45.583Z,18.54
2023-07-08T12:36:17.213Z,18.87
2023-07-08T12:38:47.353Z,18.25
2023-07-08T12:41:18.009Z,18.92
2023-07-08T12:43:46.493Z,18.74
2023-07-08T12:46:15.198Z,18.79
2023-07-08T12:48:42.920Z,18.77
2023-07-08T12:51:14.120Z,19.22
2023-07-08T12:53:41.909Z,18.90
2023-07-08T12:56:11.217Z,18.95
2023-07-08T12:58:41.781Z,18.66
2023-07-08T13:01:11.411Z,18.61
2023-07-08T13:03:42.649Z,18.49
2023-07-08T13:06:11.546Z,19.20
2023-07-08T13:08:40.226Z,19.46
2023-07-08T13:11:08.681Z,19.20
2023-07-08T13:13:39.351Z,18.74
2023-07-08T13:16:07.428Z,18.87
2023-07-08T13:18:36.184Z,18.67
2023-07-08T13:21:05.149Z,18.67
2023-07-08T13:23:32.794Z,18.85
2023-07-08T13:26:00.469Z,18.50
2023-07-08T13:28:29.878Z,19.02
2023-07-08T13:31:01.272Z,19.35
2023-07-08T13:33:31.172Z,19.59
2023-07-08T13:35:58.900Z,19.83
2023-07-08T13:38:30.279Z,19.24
2023-07-08T13:41:00.857Z,19.07
2023-07-08T13:43:30.223Z,19.66
2023-07-08T13:45:59.991Z,19.25
2023-07-08T13:48:30.719Z,19.11
2023-07-08T13:51:01.182Z,19.22
2023-07-08T13:53:40.647Z,18.97
2023-07-08T13:56:14.717Z,18.74
2023-07-08T13:58:45.060Z,18.89
2023-07-08T14:01:18.682Z,19.37
2023-07-08T14:03:48.520Z,18.02
2023-07-08T14:06:17.263Z,18.26
2023-07-08T14:08:44.953Z,18.46
2023-07-08T14:11:12.480Z,17.66
2023-07-08T14:13:40.098Z,18.57
2023-07-08T14:16:12.683Z,18.69
2023-07-08T14:18:41.543Z,18.77
2023-07-08T14:21:10.376Z,19.09
2023-07-08T14:23:38.353Z,19.36
2023-07-08T14:26:09.558Z,19.09
2023-07-08T14:28:37.100Z,19.62
2023-07-08T14:31:05.161Z,19.21
2023-07-08T14:33:32.932Z,19.14
2023-07-08T14:36:01.808Z,19.56
2023-07-08T14:38:29.320Z,19.46
2023-07-08T14:40:57.295Z,19.64
2023-07-08T14:43:29.275Z,19.25
2023-07-08T14:45:58.828Z,19.50
2023-07-08T14:48:27.434Z,19.43
2023-07-08T14:50:55.286Z,19.40
2023-07-08T14:53:24.175Z,18.78
2023-07-08T14:55:53.342Z,18.99
2023-07-08T14:58:23.936Z,19.38
2023-07-08T15:00:52.197Z,19.01
2023-07-08T15:03:20.001Z,18.93
2023-07-08T15:05:48.565Z,19.15
2023-07-08T15:08:16.120Z,18.76
2023-07-08T15:10:49.194Z,18.69
2023-07-08T15:13:17.553Z,18.63
2023-07-08T15:15:45.093Z,18.38
2023-07-08T15:18:14.897Z,18.77
2023-07-08T15:20:43.412Z,18.37
2023-07-08T15:23:11.486Z,18.32
2023-07-08T15:25:39.247Z,18.26
2023-07-08T15:28:11.231Z,18.17
2023-07-08T15:30:39.377Z,18.47
2023-07-08T15:33:06.999Z,18.56
2023-07-08T15:35:35.119Z,18.34
2023-07-08T15:38:05.067Z,18.51
2023-07-08T15:40:34.633Z,18.58
2023-07-08T15:43:03.499Z,18.81
2023-07-08T15:45:34.456Z,18.65
2023-07-08T15:48:02.027Z,18.25
2023-07-08T15:50:29.919Z,18.41
2023-07-08T15:52:57.465Z,18.30
2023-07-08T15:55:27.343Z,18.21
2023-07-08T15:57:57.120Z,18.43
2023-07-08T16:00:28.707Z,18.92
2023-07-08T16:03:07.786Z,19.11
2023-07-08T16:05:37.026Z,19.43
2023-07-08T16:08:05.104Z,19.27
2023-07-08T16:10:33.368Z,19.51
2023-07-08T16:13:00.957Z,19.36
2023-07-08T16:15:30.358Z,19.41
2023-07-08T16:17:59.636Z,19.62
2023-07-08T16:20:28.462Z,20.06
2023-07-08T16:22:56.444Z,20.13
2023-07-08T16:25:28.990Z,20.27
2023-07-08T16:27:56.856Z,20.17
2023-07-08T16:30:24.439Z,20.09
2023-07-08T16:32:52.134Z,19.99
2023-07-08T16:35:22.432Z,19.92
2023-07-08T16:37:51.374Z,20.26
2023-07-08T16:40:25.846Z,20.06
2023-07-08T16:42:56.218Z,21.92
2023-07-08T16:45:25.171Z,22.69
2023-07-08T16:47:53.416Z,23.23
2023-07-08T16:50:24.033Z,23.35
2023-07-08T16:52:51.768Z,23.41
2023-07-08T16:55:20.887Z,23.75
2023-07-08T16:57:48.731Z,24.09
2023-07-08T17:00:19.037Z,24.14
2023-07-08T17:02:47.483Z,24.38
2023-07-08T17:05:22.474Z,24.56
2023-07-08T17:07:50.692Z,24.63
2023-07-08T17:10:19.290Z,24.36
2023-07-08T17:12:46.993Z,24.60
2023-07-08T17:15:15.612Z,24.82
2023-07-08T17:17:45.362Z,24.99
2023-07-08T17:20:18.783Z,25.07
2023-07-08T17:22:48.119Z,25.36
2023-07-08T17:25:18.042Z,25.10
2023-07-08T17:27:45.820Z,25.20
2023-07-08T17:30:15.179Z,25.34
2023-07-08T17:32:44.088Z,25.57
2023-07-08T17:35:14.814Z,25.44
2023-07-08T17:37:42.669Z,25.56
2023-07-08T17:40:16.580Z,25.30
2023-07-08T17:42:44.801Z,25.74
2023-07-08T17:45:14.229Z,25.81
2023-07-08T17:47:42.230Z,25.83
2023-07-08T17:50:17.741Z,25.96
2023-07-08T17:52:45.707Z,26.05
2023-07-08T17:55:15.008Z,26.28
2023-07-08T17:57:43.816Z,26.32
2023-07-08T18:00:16.256Z,26.67
2023-07-08T18:02:43.910Z,26.95
2023-07-08T18:05:18.869Z,27.05
2023-07-08T18:07:47.462Z,26.95
2023-07-08T18:10:17.868Z,27.25
2023-07-08T18:12:46.899Z,27.83
2023-07-08T18:15:20.460Z,27.83
2023-07-08T18:17:49.668Z,27.98
2023-07-08T18:20:17.400Z,28.20
2023-07-08T18:22:47.077Z,28.16
2023-07-08T18:25:20.850Z,28.16
2023-07-08T18:27:48.480Z,28.47
2023-07-08T18:30:18.403Z,28.56
2023-07-08T18:32:47.815Z,28.53
2023-07-08T18:35:17.973Z,28.33
2023-07-08T18:37:46.038Z,28.94
2023-07-08T18:40:15.316Z,29.12
2023-07-08T18:42:46.237Z,29.43
2023-07-08T18:45:19.276Z,29.14
2023-07-08T18:47:46.980Z,29.43
2023-07-08T18:50:15.028Z,29.57
2023-07-08T18:52:43.125Z,29.85
2023-07-08T18:55:14.763Z,30.10
2023-07-08T18:57:43.598Z,29.95
2023-07-08T19:00:13.314Z,30.15
2023-07-08T19:02:48.164Z,30.39
2023-07-08T19:05:16.595Z,30.52
2023-07-08T19:07:44.166Z,30.23
2023-07-08T19:10:14.837Z,30.63
2023-07-08T19:12:47.618Z,31.43
2023-07-08T19:15:20.373Z,31.17
2023-07-08T19:17:49.060Z,31.08
2023-07-08T19:20:17.065Z,31.13
2023-07-08T19:22:45.073Z,31.15
2023-07-08T19:25:20.735Z,31.42
2023-07-08T19:27:50.132Z,31.41
2023-07-08T19:30:18.602Z,31.75
2023-07-08T19:32:49.795Z,31.50
2023-07-08T19:35:19.141Z,31.43
2023-07-08T19:37:46.873Z,31.63
2023-07-08T19:40:16.271Z,31.81
2023-07-08T19:42:44.722Z,31.68
2023-07-08T19:45:22.560Z,32.33
2023-07-08T19:47:51.000Z,32.00
2023-07-08T19:50:20.528Z,31.96
2023-07-08T19:52:48.437Z,32.25
2023-07-08T19:55:16.554Z,32.37
2023-07-08T19:57:47.225Z,32.69
2023-07-08T20:00:25.639Z,33.01
2023-07-08T20:02:54.053Z,33.71
2023-07-08T20:05:23.316Z,35.79
2023-07-08T20:07:50.959Z,36.08
2023-07-08T20:10:19.783Z,37.15
2023-07-08T20:12:47.438Z,37.91
2023-07-08T20:15:15.078Z,38.64
2023-07-08T20:17:44.099Z,37.51
2023-07-08T20:20:23.034Z,38.93
2023-07-08T20:22:50.582Z,38.61
2023-07-08T20:25:18.904Z,39.01
2023-07-08T20:27:47.415Z,39.67
2023-07-08T20:30:17.511Z,40.58
2023-07-08T20:32:46.689Z,40.94
2023-07-08T20:35:14.752Z,41.15
2023-07-08T20:37:42.326Z,39.68
2023-07-08T20:40:17.939Z,39.71
2023-07-08T20:42:45.508Z,40.54
2023-07-08T20:45:14.125Z,41.93
2023-07-08T20:47:44.347Z,42.95
2023-07-08T20:50:18.257Z,43.24
2023-07-08T20:52:46.312Z,42.48
2023-07-08T20:55:15.234Z,42.53
2023-07-08T20:57:43.062Z,42.75
2023-07-08T21:00:23.821Z,44.43
2023-07-08T21:02:52.040Z,43.58
2023-07-08T21:05:21.311Z,44.60
2023-07-08T21:07:49.194Z,44.28
2023-07-08T21:10:18.659Z,44.98
2023-07-08T21:12:46.371Z,44.52
2023-07-08T21:15:14.469Z,44.55
2023-07-08T21:17:42.426Z,43.94
2023-07-08T21:20:16.448Z,44.07
2023-07-08T21:22:45.404Z,45.50
2023-07-08T21:25:13.766Z,45.34
2023-07-08T21:27:41.398Z,45.22
2023-07-08T21:30:17.168Z,46.46
2023-07-08T21:32:46.057Z,46.49
2023-07-08T21:35:14.122Z,46.77
2023-07-08T21:37:49.761Z,47.14
2023-07-08T21:40:31.013Z,47.54
2023-07-08T21:42:58.618Z,47.77
2023-07-08T21:45:27.829Z,47.29
2023-07-08T21:47:55.455Z,47.86
2023-07-08T21:50:23.658Z,48.37
2023-07-08T21:52:53.761Z,48.46
2023-07-08T21:55:24.101Z,47.89
2023-07-08T21:57:54.719Z,48.56
2023-07-08T22:00:22.613Z,48.14
2023-07-08T22:03:11.204Z,48.37
2023-07-08T22:05:38.697Z,49.22
2023-07-08T22:08:09.793Z,49.95
2023-07-08T22:10:37.468Z,50.16
2023-07-08T22:13:05.057Z,50.41
2023-07-08T22:15:32.642Z,50.71
2023-07-08T22:18:00.248Z,50.77
2023-07-08T22:20:29.995Z,51.56
2023-07-08T22:22:57.540Z,50.46
2023-07-08T22:25:28.253Z,50.19
2023-07-08T22:27:55.861Z,49.77
2023-07-08T22:30:24.099Z,50.79
2023-07-08T22:32:52.503Z,50.82
2023-07-08T22:35:31.037Z,50.68
2023-07-08T22:37:59.398Z,51.77
2023-07-08T22:40:29.261Z,51.88
2023-07-08T22:42:58.156Z,51.58
2023-07-08T22:45:25.988Z,52.28
2023-07-08T22:47:53.650Z,51.67
2023-07-08T22:50:23.254Z,50.85
2023-07-08T22:52:52.668Z,51.37
2023-07-08T22:55:23.910Z,52.18
2023-07-08T22:57:52.848Z,52.40
2023-07-08T23:00:22.477Z,52.27
2023-07-08T23:02:50.449Z,52.58
2023-07-08T23:05:21.945Z,52.67
2023-07-08T23:07:49.670Z,53.47
2023-07-08T23:10:17.928Z,54.35
2023-07-08T23:12:45.530Z,54.36
2023-07-08T23:15:14.390Z,53.76
2023-07-08T23:17:44.328Z,54.01
2023-07-08T23:20:19.050Z,53.63
2023-07-08T23:22:48.273Z,52.81
2023-07-08T23:25:16.743Z,53.35
2023-07-08T23:27:44.954Z,52.96
2023-07-08T23:30:18.093Z,53.29
2023-07-08T23:32:46.345Z,54.34
2023-07-08T23:35:14.131Z,53.83
2023-07-08T23:37:42.441Z,54.45
2023-07-08T23:40:15.199Z,54.78
2023-07-08T23:42:43.541Z,54.20
2023-07-08T23:45:15.022Z,53.58
2023-07-08T23:47:43.605Z,53.63
2023-07-08T23:50:17.688Z,55.31
2023-07-08T23:52:45.352Z,55.81
2023-07-08T23:55:13.785Z,56.60
2023-07-08T23:57:41.592Z,56.77
